Time;durP1;ratioP1;P1;durP2;ratioP2;P2;SDS_P1;SDS_P2;PMS_P1;PMS_P2;Temp;Humidity;BMP_temperature;BMP_pressure;BME280_temperature;BME280_humidity;BME280_pressure;Samples;Min_cycle;Max_cycle;Signal;HPM_P1;HPM_P2
2023/12/07 00:02:12;;;;;;;129.82;41.33;;;-4.10;99.90;;;;;;5072360;28;20149;-75
2023/12/07 00:04:37;;;;;;;113.90;41.53;;;-4.10;99.90;;;;;;5070827;28;20474;-79
2023/12/07 00:07:03;;;;;;;123.50;42.00;;;-4.10;99.90;;;;;;5072100;28;20078;-79
2023/12/07 00:09:29;;;;;;;129.57;42.35;;;-4.10;99.90;;;;;;5071932;28;20020;-75
2023/12/07 00:11:54;;;;;;;119.55;41.80;;;-4.10;99.90;;;;;;5070853;28;20055;-78
2023/12/07 00:14:20;;;;;;;129.88;42.13;;;-4.10;99.90;;;;;;5070716;28;20127;-75
2023/12/07 00:16:46;;;;;;;129.48;41.42;;;-4.10;99.90;;;;;;5072266;28;20425;-79
2023/12/07 00:19:11;;;;;;;128.85;41.17;;;-4.10;99.90;;;;;;5071827;28;20028;-75
2023/12/07 00:21:37;;;;;;;121.50;39.42;;;-4.10;99.90;;;;;;5070850;28;20386;-75
2023/12/07 00:24:03;;;;;;;129.35;41.58;;;-4.10;99.90;;;;;;5070413;28;20008;-75
2023/12/07 00:26:29;;;;;;;139.02;41.83;;;-4.10;99.90;;;;;;5071959;28;20092;-75
2023/12/07 00:28:54;;;;;;;119.65;40.00;;;-4.10;99.90;;;;;;5070824;28;20505;-79
2023/12/07 00:31:20;;;;;;;129.55;41.28;;;-4.10;99.90;;;;;;5072030;28;20025;-75
2023/12/07 00:33:46;;;;;;;129.48;42.00;;;-4.00;99.90;;;;;;5070344;28;20041;-74
2023/12/07 00:36:12;;;;;;;150.43;42.38;;;-4.00;99.90;;;;;;5070565;28;20108;-75
2023/12/07 00:38:37;;;;;;;128.32;42.10;;;-4.00;99.90;;;;;;5073448;28;20017;-78
2023/12/07 00:41:03;;;;;;;106.55;39.17;;;-4.00;99.90;;;;;;5074285;28;20035;-79
2023/12/07 00:43:29;;;;;;;115.13;36.35;;;-4.00;99.90;;;;;;5074928;28;20078;-75
2023/12/07 00:45:55;;;;;;;121.13;39.70;;;-4.00;99.90;;;;;;5075427;28;20501;-75
2023/12/07 00:48:20;;;;;;;143.82;44.25;;;-4.00;99.90;;;;;;5073679;28;20036;-74
2023/12/07 00:50:47;;;;;;;128.43;37.50;;;-4.00;99.90;;;;;;5073885;28;20390;-75
2023/12/07 00:53:13;;;;;;;127.45;42.40;;;-4.00;99.90;;;;;;5075079;28;20111;-74
2023/12/07 00:55:40;;;;;;;129.15;43.00;;;-4.00;99.90;;;;;;5070888;28;20128;-79
2023/12/07 00:58:05;;;;;;;139.40;44.90;;;-4.00;99.90;;;;;;5072996;28;20017;-75
2023/12/07 01:00:31;;;;;;;135.38;41.50;;;-3.90;99.90;;;;;;5073869;28;20024;-75
2023/12/07 01:02:57;;;;;;;115.32;36.65;;;-4.00;99.90;;;;;;5073836;28;20082;-78
2023/12/07 01:05:22;;;;;;;129.50;41.60;;;-4.00;99.90;;;;;;5075109;28;20023;-79
2023/12/07 01:07:48;;;;;;;130.07;41.17;;;-4.00;99.90;;;;;;5073645;28;20036;-75
2023/12/07 01:10:14;;;;;;;140.63;45.28;;;-4.00;99.90;;;;;;5073747;28;20063;-75
2023/12/07 01:12:39;;;;;;;124.45;43.10;;;-4.00;99.90;;;;;;5073719;28;20059;-79
2023/12/07 01:15:06;;;;;;;127.97;40.97;;;-3.90;99.90;;;;;;5074957;28;20070;-75
2023/12/07 01:17:31;;;;;;;124.88;42.75;;;-4.00;99.90;;;;;;5074542;28;20488;-79
2023/12/07 01:19:57;;;;;;;138.30;42.60;;;-3.90;99.90;;;;;;5061546;28;20017;-75
2023/12/07 01:22:23;;;;;;;156.75;45.45;;;-3.90;99.90;;;;;;5072532;28;20095;-78
2023/12/07 01:24:48;;;;;;;160.27;46.90;;;-3.90;99.90;;;;;;5072866;28;20016;-74
2023/12/07 01:27:14;;;;;;;140.02;40.38;;;-4.00;99.90;;;;;;5072817;28;20393;-75
2023/12/07 01:29:40;;;;;;;139.73;42.25;;;-3.90;99.90;;;;;;5061926;28;20079;-78
2023/12/07 01:32:06;;;;;;;152.57;43.20;;;-3.90;99.90;;;;;;5072349;28;20048;-79
2023/12/07 01:34:32;;;;;;;142.23;42.42;;;-3.90;99.90;;;;;;5074796;28;20486;-78
2023/12/07 01:36:58;;;;;;;146.63;44.03;;;-3.90;99.90;;;;;;5073089;28;20020;-79
2023/12/07 01:39:23;;;;;;;131.82;42.05;;;-3.90;99.90;;;;;;5073042;28;20078;-75
2023/12/07 01:41:50;;;;;;;156.25;40.90;;;-3.90;99.90;;;;;;5072773;28;20023;-75
2023/12/07 01:44:15;;;;;;;134.52;39.40;;;-3.90;99.90;;;;;;5073025;28;20470;-74
2023/12/07 01:46:42;;;;;;;146.20;41.85;;;-3.90;99.90;;;;;;5072701;28;20020;-78
2023/12/07 01:49:08;;;;;;;139.60;42.65;;;-3.80;99.90;;;;;;5073176;28;20032;-79
2023/12/07 01:51:34;;;;;;;125.43;40.10;;;-3.90;99.90;;;;;;5073965;28;20085;-75
2023/12/07 01:54:00;;;;;;;126.57;36.97;;;-3.80;99.90;;;;;;5072975;28;20020;-75
2023/12/07 01:56:26;;;;;;;116.88;38.38;;;-3.90;99.90;;;;;;5073807;28;20485;-75
2023/12/07 01:58:52;;;;;;;115.45;38.10;;;-3.80;99.90;;;;;;5072906;28;20031;-75
2023/12/07 02:01:18;;;;;;;108.55;37.78;;;-3.80;99.90;;;;;;5072504;28;20009;-78
2023/12/07 02:03:43;;;;;;;106.13;38.03;;;-3.80;99.90;;;;;;5074069;28;20359;-78
2023/12/07 02:06:10;;;;;;;110.68;35.95;;;-3.80;99.90;;;;;;5072244;28;20119;-73
2023/12/07 02:08:40;;;;;;;96.70;37.00;;;-3.80;99.90;;;;;;5072460;28;20136;-78
2023/12/07 02:11:08;;;;;;;105.03;32.53;;;-3.80;99.90;;;;;;5073482;28;20171;-78
2023/12/07 02:13:38;;;;;;;98.28;33.33;;;-3.80;99.90;;;;;;5073945;28;20050;-73
2023/12/07 02:16:27;;;;;;;91.60;33.67;;;-3.80;99.90;;;;;;5072898;28;20012;-74
2023/12/07 02:18:59;;;;;;;92.43;34.67;;;-3.80;99.90;;;;;;5073503;28;20070;-78
2023/12/07 02:21:36;;;;;;;85.82;30.75;;;-3.70;99.90;;;;;;5073465;28;20055;-73
2023/12/07 02:24:03;;;;;;;81.50;31.38;;;-3.70;99.90;;;;;;5073243;28;20013;-78
2023/12/07 02:26:53;;;;;;;77.82;30.50;;;-3.70;99.90;;;;;;5073273;28;20111;-73
2023/12/07 02:29:19;;;;;;;76.63;27.05;;;-3.70;99.90;;;;;;5060924;28;20596;-74
2023/12/07 02:31:45;;;;;;;73.00;29.30;;;-3.70;99.90;;;;;;5070815;28;20020;-73
2023/12/07 02:34:11;;;;;;;73.07;28.40;;;-3.70;99.90;;;;;;5069046;28;20025;-74
2023/12/07 02:36:39;;;;;;;69.03;26.70;;;-3.70;99.90;;;;;;5070387;28;20029;-77
2023/12/07 02:39:06;;;;;;;66.20;27.00;;;-3.60;99.90;;;;;;5073207;28;20030;-78
2023/12/07 02:41:33;;;;;;;65.68;27.45;;;-3.60;99.90;;;;;;5072875;28;20106;-78
2023/12/07 02:43:59;;;;;;;69.13;26.90;;;-3.50;99.90;;;;;;5072035;28;20048;-74
2023/12/07 02:46:26;;;;;;;65.30;26.10;;;-3.60;99.90;;;;;;5071735;28;20070;-73
2023/12/07 02:48:51;;;;;;;64.60;26.75;;;-3.50;99.90;;;;;;5071516;28;20078;-74
2023/12/07 02:51:17;;;;;;;58.95;25.60;;;-3.50;99.90;;;;;;5071547;28;20428;-74
2023/12/07 02:53:43;;;;;;;55.80;24.38;;;-3.50;99.90;;;;;;5073063;28;20028;-79
2023/12/07 02:56:09;;;;;;;66.78;26.88;;;-3.50;99.90;;;;;;5072654;28;20025;-74
2023/12/07 02:58:34;;;;;;;60.00;27.30;;;-3.40;99.90;;;;;;5073121;28;20032;-74
2023/12/07 03:01:00;;;;;;;64.10;27.90;;;-3.40;99.90;;;;;;5070960;28;20523;-74
2023/12/07 03:03:25;;;;;;;66.43;26.55;;;-3.40;99.90;;;;;;5072937;28;20482;-78
2023/12/07 03:05:51;;;;;;;59.55;24.13;;;-3.30;99.90;;;;;;5072803;28;20016;-74
2023/12/07 03:08:17;;;;;;;60.05;25.35;;;-3.30;99.90;;;;;;5072500;28;20394;-74
2023/12/07 03:10:42;;;;;;;57.42;25.08;;;-3.30;99.90;;;;;;5071589;28;20058;-79
2023/12/07 03:13:08;;;;;;;58.95;27.33;;;-3.30;99.90;;;;;;5072814;28;20389;-75
2023/12/07 03:15:34;;;;;;;65.53;28.30;;;-3.20;99.90;;;;;;5071446;28;20078;-79
2023/12/07 03:17:59;;;;;;;69.75;30.10;;;-3.20;99.90;;;;;;5072616;28;20051;-74
2023/12/07 03:20:25;;;;;;;67.78;27.83;;;-3.20;99.90;;;;;;5072613;28;20036;-74
2023/12/07 03:22:51;;;;;;;74.55;28.40;;;-3.20;99.90;;;;;;5071453;28;20029;-79
2023/12/07 03:25:16;;;;;;;77.95;28.70;;;-3.20;99.90;;;;;;5071331;28;20040;-74
2023/12/07 03:27:42;;;;;;;71.72;29.20;;;-3.20;99.90;;;;;;5071137;28;20043;-79
2023/12/07 03:30:08;;;;;;;74.15;30.40;;;-3.20;99.90;;;;;;5071269;28;20048;-78
2023/12/07 03:32:33;;;;;;;70.13;30.45;;;-3.10;99.90;;;;;;5072333;28;20107;-79
2023/12/07 03:34:59;;;;;;;69.35;29.95;;;-3.20;99.90;;;;;;5071223;28;20048;-74
2023/12/07 03:37:24;;;;;;;78.85;31.63;;;-3.20;99.90;;;;;;5071125;28;20158;-75
2023/12/07 03:39:50;;;;;;;77.53;31.10;;;-3.10;99.90;;;;;;5072428;28;20020;-79
2023/12/07 03:42:17;;;;;;;70.53;27.60;;;-3.10;99.90;;;;;;5072143;28;20033;-79
2023/12/07 03:44:43;;;;;;;79.25;28.88;;;-3.20;99.90;;;;;;5059326;28;20017;-79
2023/12/07 03:47:09;;;;;;;72.72;29.30;;;-3.10;99.90;;;;;;5072167;28;20504;-79
2023/12/07 03:49:35;;;;;;;84.57;32.45;;;-3.10;99.90;;;;;;5072225;28;20024;-74
2023/12/07 03:52:01;;;;;;;79.53;33.55;;;-3.10;99.90;;;;;;5070826;28;20111;-74
2023/12/07 03:54:27;;;;;;;79.20;31.67;;;-3.10;99.90;;;;;;5071103;28;20382;-78
2023/12/07 03:56:52;;;;;;;84.30;32.72;;;-3.10;99.90;;;;;;5070660;28;20032;-79
2023/12/07 03:59:18;;;;;;;85.57;31.77;;;-3.00;99.90;;;;;;5072309;28;20394;-74
2023/12/07 04:01:43;;;;;;;77.35;30.55;;;-3.00;99.90;;;;;;5071992;28;20035;-74
2023/12/07 04:04:09;;;;;;;89.05;32.47;;;-3.00;99.90;;;;;;5070942;28;20028;-74
2023/12/07 04:06:35;;;;;;;70.07;30.40;;;-3.00;99.90;;;;;;5070872;28;20028;-79
2023/12/07 04:09:01;;;;;;;64.07;32.67;;;-3.00;99.90;;;;;;5072145;28;20111;-79
2023/12/07 04:11:26;;;;;;;73.80;28.83;;;-3.00;99.90;;;;;;5070627;28;20115;-75
2023/12/07 04:13:52;;;;;;;81.88;32.03;;;-3.00;99.90;;;;;;5075666;28;20048;-79
2023/12/07 04:16:17;;;;;;;78.05;35.20;;;-3.10;99.90;;;;;;5075929;28;20363;-74
2023/12/07 04:18:43;;;;;;;85.10;37.70;;;-3.10;99.90;;;;;;5074728;28;20017;-79
2023/12/07 04:21:09;;;;;;;95.90;39.35;;;-3.20;99.90;;;;;;5075127;28;20024;-79
2023/12/07 04:23:34;;;;;;;97.60;40.47;;;-3.10;99.90;;;;;;5074560;28;20028;-79
2023/12/07 04:26:00;;;;;;;94.35;39.65;;;-3.10;99.90;;;;;;5074143;28;20466;-79
2023/12/07 04:28:26;;;;;;;79.30;37.70;;;-3.10;99.90;;;;;;5075586;28;20506;-74
2023/12/07 04:30:52;;;;;;;88.82;36.00;;;-3.10;99.90;;;;;;5075617;28;20020;-79
2023/12/07 04:33:18;;;;;;;79.20;34.17;;;-3.10;99.90;;;;;;5074163;28;20067;-74
2023/12/07 04:35:43;;;;;;;75.90;33.08;;;-3.10;99.90;;;;;;5075515;28;20017;-74
2023/12/07 04:38:09;;;;;;;84.00;34.00;;;-3.00;99.90;;;;;;5074085;28;20028;-75
2023/12/07 04:40:37;;;;;;;82.35;32.92;;;-3.10;99.90;;;;;;5074398;28;20048;-74
2023/12/07 04:43:03;;;;;;;81.20;33.33;;;-3.00;99.90;;;;;;5073692;28;20043;-74
2023/12/07 04:45:28;;;;;;;85.72;36.40;;;-3.00;99.90;;;;;;5074159;28;20048;-79
2023/12/07 04:47:54;;;;;;;73.47;34.25;;;-3.00;99.90;;;;;;5074095;28;20420;-79
2023/12/07 04:50:20;;;;;;;73.78;32.22;;;-3.00;99.90;;;;;;5073885;28;20040;-79
2023/12/07 04:52:45;;;;;;;77.03;31.45;;;-3.00;99.90;;;;;;5075495;28;20054;-79
2023/12/07 04:55:11;;;;;;;73.35;30.70;;;-3.00;99.90;;;;;;5075140;28;20036;-74
2023/12/07 04:57:37;;;;;;;79.65;31.98;;;-3.00;99.90;;;;;;5073948;28;20418;-78
2023/12/07 05:00:06;;;;;;;82.32;32.67;;;-3.00;99.90;;;;;;5075114;28;20055;-74
2023/12/07 05:02:32;;;;;;;71.15;29.75;;;-3.00;99.90;;;;;;5075062;28;20036;-78
2023/12/07 05:04:58;;;;;;;72.53;33.75;;;-3.00;99.90;;;;;;5074984;28;20020;-78
2023/12/07 05:07:24;;;;;;;74.00;30.92;;;-3.00;99.90;;;;;;5074821;28;20045;-74
2023/12/07 05:09:53;;;;;;;75.68;30.80;;;-3.00;99.90;;;;;;5077293;28;20099;-74
2023/12/07 05:12:18;;;;;;;71.75;28.73;;;-3.00;99.90;;;;;;5066018;28;20025;-78
2023/12/07 05:14:44;;;;;;;73.93;30.20;;;-3.00;99.90;;;;;;5073577;28;20042;-74
2023/12/07 05:17:10;;;;;;;74.53;32.38;;;-2.90;99.90;;;;;;5073521;28;20055;-79
2023/12/07 05:19:36;;;;;;;78.25;32.42;;;-2.90;99.90;;;;;;5074766;28;20027;-74
2023/12/07 05:22:01;;;;;;;77.78;31.40;;;-3.00;99.90;;;;;;5074789;28;20417;-75
2023/12/07 05:24:28;;;;;;;90.82;34.22;;;-3.00;99.90;;;;;;5073961;28;20044;-74
2023/12/07 05:26:53;;;;;;;79.82;31.73;;;-2.90;99.90;;;;;;5072423;28;20028;-79
2023/12/07 05:29:19;;;;;;;81.00;33.08;;;-2.90;99.90;;;;;;5074479;28;20032;-74
2023/12/07 05:31:45;;;;;;;89.10;34.13;;;-2.90;99.90;;;;;;5074343;28;20017;-78
2023/12/07 05:34:11;;;;;;;78.90;32.25;;;-2.90;99.90;;;;;;5074454;28;20039;-74
2023/12/07 05:36:36;;;;;;;81.22;32.38;;;-2.90;99.90;;;;;;5074374;28;20017;-78
2023/12/07 05:39:02;;;;;;;81.50;35.25;;;-2.90;99.90;;;;;;5074408;28;20024;-74
2023/12/07 05:41:28;;;;;;;79.53;35.33;;;-2.90;99.90;;;;;;5074193;28;20367;-74
2023/12/07 05:43:54;;;;;;;74.57;31.67;;;-2.90;99.90;;;;;;5072943;28;20032;-79
2023/12/07 05:46:20;;;;;;;75.90;33.33;;;-2.90;99.90;;;;;;5060950;28;20020;-79
2023/12/07 05:48:46;;;;;;;83.53;35.83;;;-2.90;99.90;;;;;;5072825;28;20029;-79
2023/12/07 05:51:14;;;;;;;82.50;32.30;;;-2.90;99.90;;;;;;5073913;28;20028;-74
2023/12/07 05:53:39;;;;;;;78.32;31.60;;;-2.80;99.90;;;;;;5072713;28;20474;-75
2023/12/07 05:56:05;;;;;;;83.00;35.47;;;-2.90;99.90;;;;;;5061295;28;20031;-79
2023/12/07 05:58:32;;;;;;;88.00;35.28;;;-2.90;99.90;;;;;;5072878;28;20021;-74
2023/12/07 06:00:59;;;;;;;96.13;38.47;;;-2.80;99.90;;;;;;5073032;28;20103;-74
2023/12/07 06:03:25;;;;;;;87.78;37.35;;;-2.80;99.90;;;;;;5072397;28;20020;-74
2023/12/07 06:05:51;;;;;;;78.88;31.98;;;-2.80;99.90;;;;;;5068471;28;20485;-74
2023/12/07 06:08:17;;;;;;;80.47;34.13;;;-2.80;99.90;;;;;;5073218;28;20036;-79
2023/12/07 06:10:43;;;;;;;90.50;35.35;;;-2.80;99.90;;;;;;5072501;28;20561;-74
2023/12/07 06:13:08;;;;;;;80.68;34.92;;;-2.80;99.90;;;;;;5073551;28;20024;-78
2023/12/07 06:15:34;;;;;;;80.32;32.50;;;-2.80;99.90;;;;;;5072074;28;20103;-78
2023/12/07 06:18:01;;;;;;;86.18;36.03;;;-2.80;99.90;;;;;;5071914;28;20086;-79
2023/12/07 06:20:26;;;;;;;75.88;33.67;;;-2.80;99.90;;;;;;5072199;28;20032;-79
2023/12/07 06:22:52;;;;;;;85.97;37.67;;;-2.80;99.90;;;;;;5072611;28;20016;-79
2023/12/07 06:25:18;;;;;;;86.05;36.25;;;-2.80;99.90;;;;;;5073308;28;20425;-79
2023/12/07 06:27:44;;;;;;;82.78;34.78;;;-2.80;99.90;;;;;;5072027;28;20029;-75
2023/12/07 06:30:10;;;;;;;82.68;34.88;;;-2.80;99.90;;;;;;5068731;28;20155;-75
2023/12/07 06:32:36;;;;;;;82.60;33.28;;;-2.70;99.90;;;;;;5072589;28;20044;-74
2023/12/07 06:35:04;;;;;;;87.47;35.33;;;-2.70;99.90;;;;;;5072595;28;20020;-74
2023/12/07 06:37:30;;;;;;;76.47;34.97;;;-2.70;99.90;;;;;;5066131;28;20020;-75
2023/12/07 06:39:56;;;;;;;86.85;35.50;;;-2.70;99.90;;;;;;5073062;28;20081;-74
2023/12/07 06:42:21;;;;;;;83.78;35.00;;;-2.70;99.90;;;;;;5071955;28;20025;-74
2023/12/07 06:44:51;;;;;;;102.97;39.45;;;-2.60;99.90;;;;;;5072795;28;20062;-74
2023/12/07 06:47:18;;;;;;;131.25;50.67;;;-2.60;99.90;;;;;;5071636;28;20036;-75
2023/12/07 06:49:44;;;;;;;100.53;39.85;;;-2.60;99.90;;;;;;5072168;28;20044;-75
2023/12/07 06:52:10;;;;;;;128.65;49.78;;;-2.60;99.90;;;;;;5070890;28;20458;-75
2023/12/07 06:54:36;;;;;;;84.78;37.17;;;-2.60;99.90;;;;;;5071555;28;20028;-75
2023/12/07 06:57:02;;;;;;;91.75;36.67;;;-2.60;99.90;;;;;;5072569;28;20481;-74
2023/12/07 06:59:28;;;;;;;191.15;83.10;;;-2.60;99.90;;;;;;5070171;28;20024;-74
2023/12/07 07:01:54;;;;;;;182.43;79.60;;;-2.50;99.90;;;;;;5069807;28;20469;-76
2023/12/07 07:04:20;;;;;;;324.95;127.80;;;-2.60;99.90;;;;;;5070560;28;20039;-74
2023/12/07 07:06:45;;;;;;;220.43;92.93;;;-2.50;99.90;;;;;;5068577;28;20020;-74
2023/12/07 07:09:12;;;;;;;226.52;81.82;;;-2.50;99.90;;;;;;5066770;28;20068;-74
2023/12/07 07:11:38;;;;;;;159.73;61.15;;;-2.40;99.90;;;;;;5068685;28;20024;-74
2023/12/07 07:14:04;;;;;;;199.25;74.53;;;-2.40;99.90;;;;;;5070451;28;20035;-74
2023/12/07 07:16:30;;;;;;;408.88;147.05;;;-2.40;99.90;;;;;;5071663;28;20054;-74
2023/12/07 07:18:56;;;;;;;482.17;182.02;;;-2.40;99.90;;;;;;5070687;28;20482;-74
2023/12/07 07:21:22;;;;;;;159.43;62.75;;;-2.40;99.90;;;;;;5071765;28;20032;-74
2023/12/07 07:23:47;;;;;;;145.95;58.03;;;-2.30;99.90;;;;;;5072302;28;20035;-75
2023/12/07 07:26:17;;;;;;;230.18;80.57;;;-2.30;99.90;;;;;;5064565;28;20031;-79
2023/12/07 07:28:43;;;;;;;483.20;165.50;;;-2.20;99.90;;;;;;5069700;28;20039;-79
2023/12/07 07:31:09;;;;;;;489.13;165.80;;;-2.20;99.90;;;;;;5068596;28;20017;-79
2023/12/07 07:33:34;;;;;;;215.52;76.85;;;-2.20;99.90;;;;;;5068671;28;20110;-79
2023/12/07 07:36:00;;;;;;;480.20;177.07;;;-2.10;99.90;;;;;;5068616;28;20025;-79
2023/12/07 07:38:26;;;;;;;502.02;185.18;;;-2.00;99.90;;;;;;5068608;28;20028;-79
2023/12/07 07:40:52;;;;;;;248.02;89.97;;;-2.00;99.90;;;;;;5068365;28;20055;-79
2023/12/07 07:43:17;;;;;;;293.05;108.00;;;-2.00;99.90;;;;;;5067318;28;20568;-79
2023/12/07 07:45:43;;;;;;;372.80;129.32;;;-1.90;99.90;;;;;;5070121;28;20025;-79
2023/12/07 07:48:09;;;;;;;159.25;62.13;;;-1.80;99.90;;;;;;5073730;28;20032;-79
2023/12/07 07:50:36;;;;;;;122.85;46.85;;;-1.80;99.90;;;;;;5074516;28;20091;-79
2023/12/07 07:53:02;;;;;;;90.05;38.60;;;-1.80;99.90;;;;;;5075485;28;20008;-79
2023/12/07 07:55:29;;;;;;;89.57;35.08;;;-1.70;99.90;;;;;;5073884;28;20482;-79
2023/12/07 07:57:55;;;;;;;103.75;42.08;;;-1.60;99.90;;;;;;5074992;28;20028;-79
2023/12/07 08:00:21;;;;;;;121.15;47.40;;;-1.60;99.90;;;;;;5075059;28;20518;-79
2023/12/07 08:02:46;;;;;;;140.05;51.92;;;-1.50;99.90;;;;;;5075363;28;20017;-79
2023/12/07 08:05:12;;;;;;;128.63;47.25;;;-1.40;99.90;;;;;;5075791;28;20095;-79
2023/12/07 08:07:40;;;;;;;159.18;61.42;;;-1.30;99.90;;;;;;5075880;28;20044;-79
2023/12/07 08:10:06;;;;;;;134.18;52.58;;;-1.20;99.90;;;;;;5075572;28;20720;-79
2023/12/07 08:12:33;;;;;;;107.70;44.88;;;-1.00;99.90;;;;;;5075852;28;20417;-79
2023/12/07 08:14:59;;;;;;;86.45;38.08;;;-0.90;99.90;;;;;;5074382;28;20021;-79
2023/12/07 08:17:26;;;;;;;90.35;38.00;;;-0.80;99.90;;;;;;5074367;28;20023;-79
2023/12/07 08:19:52;;;;;;;77.07;37.03;;;-0.70;99.90;;;;;;5073906;28;20475;-80
2023/12/07 08:22:18;;;;;;;91.50;38.08;;;-0.60;99.90;;;;;;5075549;28;20461;-79
2023/12/07 08:24:43;;;;;;;80.55;35.25;;;-0.50;99.90;;;;;;5062780;28;20028;-79
2023/12/07 08:27:09;;;;;;;75.97;34.97;;;-0.40;99.90;;;;;;5074186;28;20505;-79
2023/12/07 08:29:36;;;;;;;69.45;31.65;;;-0.40;99.90;;;;;;5075353;28;20021;-79
2023/12/07 08:32:02;;;;;;;73.05;29.80;;;-0.30;99.90;;;;;;5075110;28;20048;-79
2023/12/07 08:34:29;;;;;;;77.40;33.53;;;-0.20;99.90;;;;;;5075194;28;20035;-79
2023/12/07 08:36:54;;;;;;;127.53;50.92;;;-0.20;99.90;;;;;;5075345;28;20420;-79
2023/12/07 08:39:20;;;;;;;290.52;101.38;;;-0.20;99.90;;;;;;5074906;28;20024;-79
2023/12/07 08:41:46;;;;;;;137.75;57.10;;;-0.10;99.90;;;;;;5075395;28;20469;-79
2023/12/07 08:44:12;;;;;;;109.10;46.75;;;0.00;99.90;;;;;;5073432;28;20029;-79
2023/12/07 08:46:37;;;;;;;82.03;34.70;;;0.00;99.90;;;;;;5073907;28;20047;-79
2023/12/07 08:49:03;;;;;;;91.10;37.35;;;0.10;99.90;;;;;;5086445;28;20069;-79
2023/12/07 08:51:29;;;;;;;73.28;35.28;;;0.20;99.90;;;;;;5073836;28;20095;-79
2023/12/07 08:53:55;;;;;;;71.65;31.55;;;0.20;99.90;;;;;;5074702;28;20058;-79
2023/12/07 08:56:21;;;;;;;80.03;34.85;;;0.30;99.90;;;;;;5073728;28;20440;-79
2023/12/07 08:58:46;;;;;;;83.32;36.15;;;0.40;99.90;;;;;;5074219;28;20025;-79
2023/12/07 09:01:12;;;;;;;73.93;33.17;;;0.50;99.90;;;;;;5073541;28;20478;-79
2023/12/07 09:03:38;;;;;;;74.18;30.20;;;0.50;99.90;;;;;;5074683;28;20078;-79
2023/12/07 09:06:05;;;;;;;71.50;32.25;;;0.50;99.90;;;;;;5073834;28;20027;-79
2023/12/07 09:08:30;;;;;;;84.88;35.63;;;0.40;99.90;;;;;;5074789;28;20107;-79
2023/12/07 09:10:56;;;;;;;66.50;29.70;;;0.40;99.90;;;;;;5073761;28;20015;-79
2023/12/07 09:13:22;;;;;;;52.40;27.73;;;0.40;99.90;;;;;;5073552;28;20115;-79
2023/12/07 09:15:47;;;;;;;50.70;23.42;;;0.30;99.90;;;;;;5075058;28;20095;-75
2023/12/07 09:18:13;;;;;;;67.78;30.17;;;0.20;99.90;;;;;;5073437;28;20020;-75
2023/12/07 09:20:47;;;;;;;75.10;31.02;;;0.30;99.90;;;;;;5074068;28;20162;-79
2023/12/07 09:23:17;;;;;;;79.57;31.38;;;0.30;99.90;;;;;;5074567;28;20021;-75
2023/12/07 09:25:43;;;;;;;56.08;25.23;;;0.30;99.90;;;;;;5074811;28;20029;-79
2023/12/07 09:28:09;;;;;;;56.45;25.30;;;0.40;99.90;;;;;;5074608;28;20075;-79
2023/12/07 09:30:34;;;;;;;51.55;22.67;;;0.50;99.90;;;;;;5073606;28;20056;-75
2023/12/07 09:33:03;;;;;;;61.22;24.25;;;0.50;99.90;;;;;;5073183;28;20561;-75
2023/12/07 09:35:29;;;;;;;51.75;22.80;;;0.50;99.90;;;;;;5074652;28;20024;-79
2023/12/07 09:37:54;;;;;;;48.83;21.55;;;0.40;99.90;;;;;;5074509;28;20032;-75
2023/12/07 09:40:22;;;;;;;47.53;22.48;;;0.40;99.90;;;;;;5073013;28;20119;-79
2023/12/07 09:42:49;;;;;;;52.42;23.05;;;0.30;99.90;;;;;;5074104;28;20100;-76
2023/12/07 09:45:19;;;;;;;52.60;24.23;;;0.30;99.90;;;;;;5073197;28;20025;-79
2023/12/07 09:47:52;;;;;;;51.00;25.42;;;0.30;99.90;;;;;;5074190;28;20024;-76
2023/12/07 09:50:21;;;;;;;53.47;23.45;;;0.40;99.90;;;;;;5073140;28;20436;-76
2023/12/07 09:52:50;;;;;;;48.40;22.75;;;0.50;99.90;;;;;;5072807;28;20408;-75
2023/12/07 09:55:19;;;;;;;47.78;23.20;;;0.60;99.90;;;;;;5072643;28;20029;-75
2023/12/07 09:57:49;;;;;;;56.33;24.23;;;0.60;99.90;;;;;;5074240;28;20016;-75
2023/12/07 10:00:15;;;;;;;53.75;22.25;;;0.70;99.90;;;;;;5072735;28;20413;-75
2023/12/07 10:02:42;;;;;;;51.13;22.67;;;0.80;99.90;;;;;;5074086;28;20390;-79
2023/12/07 10:05:13;;;;;;;53.33;25.67;;;0.80;99.90;;;;;;5072549;28;20474;-75
2023/12/07 10:07:43;;;;;;;58.80;26.50;;;0.70;99.90;;;;;;5072627;28;20097;-79
2023/12/07 10:10:13;;;;;;;49.53;23.70;;;0.70;99.90;;;;;;5071486;28;21393;-75
2023/12/07 10:12:52;;;;;;;57.22;22.38;;;0.80;99.90;;;;;;5072642;28;20023;-75
2023/12/07 10:15:20;;;;;;;48.72;24.00;;;0.70;99.90;;;;;;5073606;28;20025;-78
2023/12/07 10:17:47;;;;;;;49.40;22.95;;;0.80;99.90;;;;;;5073794;28;20035;-79
2023/12/07 10:20:17;;;;;;;53.20;23.67;;;0.80;99.90;;;;;;5073541;28;20373;-75
2023/12/07 10:22:45;;;;;;;56.30;24.73;;;1.00;99.90;;;;;;5059511;28;20494;-79
2023/12/07 10:25:11;;;;;;;48.65;22.92;;;1.10;99.90;;;;;;5060446;28;20111;-79
2023/12/07 10:27:40;;;;;;;54.97;23.80;;;1.20;99.90;;;;;;5071799;28;20034;-80
2023/12/07 10:30:08;;;;;;;50.17;22.70;;;1.10;99.90;;;;;;5073650;28;20020;-76
2023/12/07 10:32:41;;;;;;;50.25;23.98;;;1.10;99.90;;;;;;5071921;28;20406;-78
2023/12/07 10:35:08;;;;;;;49.00;23.40;;;1.20;99.90;;;;;;5073505;28;20031;-80
2023/12/07 10:37:34;;;;;;;49.80;24.25;;;1.20;99.90;;;;;;5071839;28;20024;-75
2023/12/07 10:40:00;;;;;;;51.88;22.25;;;1.10;99.90;;;;;;5072076;28;20017;-79
2023/12/07 10:42:27;;;;;;;50.55;24.50;;;1.10;99.90;;;;;;5071695;28;20029;-76
2023/12/07 10:44:57;;;;;;;75.00;32.08;;;1.20;99.90;;;;;;5072148;28;20016;-75
2023/12/07 10:47:24;;;;;;;69.25;29.88;;;1.30;99.90;;;;;;5072741;28;20028;-75
2023/12/07 10:49:54;;;;;;;48.95;23.73;;;1.40;99.90;;;;;;5071928;28;20112;-79
2023/12/07 10:52:24;;;;;;;55.35;23.83;;;1.40;99.90;;;;;;5072930;28;20545;-79
2023/12/07 10:55:14;;;;;;;49.15;22.65;;;1.40;99.90;;;;;;5073408;28;20024;-76
2023/12/07 10:57:40;;;;;;;46.72;23.15;;;1.50;99.90;;;;;;5072953;28;20020;-80
2023/12/07 11:00:09;;;;;;;110.38;47.97;;;1.60;99.90;;;;;;5071881;28;20094;-78
2023/12/07 11:02:36;;;;;;;45.85;20.02;;;1.60;99.90;;;;;;5060203;28;20024;-76
2023/12/07 11:05:02;;;;;;;35.65;17.00;;;1.70;99.90;;;;;;5072891;28;20024;-75
2023/12/07 11:07:59;;;;;;;39.22;19.20;;;1.60;99.90;;;;;;5071584;28;20490;-79
2023/12/07 11:10:36;;;;;;;36.15;17.55;;;1.60;99.90;;;;;;5079159;28;20161;-75
2023/12/07 11:13:24;;;;;;;36.92;19.70;;;1.60;99.90;;;;;;5072913;28;20025;-75
2023/12/07 11:15:50;;;;;;;32.35;17.58;;;1.70;99.90;;;;;;5062260;28;20482;-80
2023/12/07 11:18:15;;;;;;;392.55;143.02;;;1.70;99.90;;;;;;5072504;28;20024;-75
2023/12/07 11:20:43;;;;;;;96.38;38.25;;;1.80;99.90;;;;;;5071334;28;20032;-79
2023/12/07 11:23:09;;;;;;;218.18;88.30;;;1.70;99.90;;;;;;5071186;28;20008;-76
2023/12/07 11:25:36;;;;;;;105.93;43.20;;;1.70;99.90;;;;;;5071507;28;20093;-75
2023/12/07 11:28:07;;;;;;;69.05;31.33;;;1.70;99.90;;;;;;5072612;28;20485;-80
2023/12/07 11:30:35;;;;;;;97.75;46.20;;;1.70;99.90;;;;;;5072659;28;20069;-80
2023/12/07 11:33:04;;;;;;;65.30;28.40;;;1.60;99.90;;;;;;5071727;28;20071;-79
2023/12/07 11:35:30;;;;;;;59.28;25.73;;;1.60;99.90;;;;;;5071692;28;20036;-79
2023/12/07 11:38:07;;;;;;;53.97;25.27;;;1.50;99.90;;;;;;5072478;28;20012;-75
2023/12/07 11:40:36;;;;;;;69.30;30.30;;;1.50;99.90;;;;;;5071026;28;20048;-75
2023/12/07 11:43:04;;;;;;;59.83;24.35;;;1.50;99.90;;;;;;5071976;28;20107;-80
2023/12/07 11:45:37;;;;;;;55.83;26.17;;;1.50;99.90;;;;;;5072626;28;20056;-80
2023/12/07 11:48:11;;;;;;;51.88;24.17;;;1.50;99.90;;;;;;5075513;28;20028;-75
2023/12/07 11:50:52;;;;;;;89.43;37.40;;;1.40;99.90;;;;;;5072379;28;20102;-75
2023/12/07 11:53:24;;;;;;;81.97;36.45;;;1.40;99.90;;;;;;5071062;28;20032;-79
2023/12/07 11:55:50;;;;;;;75.20;32.53;;;1.50;99.90;;;;;;5072236;28;20017;-79
2023/12/07 11:58:16;;;;;;;66.45;31.67;;;1.40;99.90;;;;;;5072460;28;20470;-79
2023/12/07 12:00:41;;;;;;;74.25;31.70;;;1.40;99.90;;;;;;5072316;28;20020;-75
2023/12/07 12:03:07;;;;;;;62.53;26.83;;;1.40;99.90;;;;;;5071246;28;20070;-79
2023/12/07 12:05:33;;;;;;;54.38;26.55;;;1.40;99.90;;;;;;5071985;28;20355;-76
2023/12/07 12:07:58;;;;;;;93.40;39.63;;;1.30;99.90;;;;;;5072249;28;20036;-80
2023/12/07 12:10:25;;;;;;;95.57;38.88;;;1.20;99.90;;;;;;5072077;28;20063;-75
2023/12/07 12:12:53;;;;;;;131.38;52.05;;;1.10;99.90;;;;;;5071063;28;20074;-76
2023/12/07 12:15:20;;;;;;;235.98;105.00;;;1.10;99.90;;;;;;5070580;28;20493;-75
2023/12/07 12:17:46;;;;;;;56.53;25.77;;;1.00;99.90;;;;;;5070827;28;20028;-80
2023/12/07 12:20:17;;;;;;;63.97;30.15;;;0.80;99.90;;;;;;5072049;28;20025;-75
2023/12/07 12:22:43;;;;;;;58.72;28.02;;;0.80;99.90;;;;;;5072207;28;20103;-79
2023/12/07 12:25:10;;;;;;;58.05;29.05;;;0.80;99.90;;;;;;5071905;28;20363;-75